createdAt,value
2017-02-21T00:00:26.437Z,1011.26
2017-02-21T00:01:36.293Z,1011.25
2017-02-21T00:02:45.356Z,1011.19
2017-02-21T00:03:54.710Z,1011.19
2017-02-21T00:05:04.213Z,1011.17
2017-02-21T00:06:14.328Z,1011.16
2017-02-21T00:07:23.739Z,1011.12
2017-02-21T00:08:33.002Z,1011.1
2017-02-21T00:09:42.860Z,1011.03
2017-02-21T00:10:52.127Z,1011.02
2017-02-21T00:12:01.217Z,1011
2017-02-21T00:13:10.846Z,1011.06
2017-02-21T00:14:20.807Z,1011
2017-02-21T00:15:30.799Z,1010.93
2017-02-21T00:16:40.755Z,1010.99
2017-02-21T00:17:50.642Z,1010.97
2017-02-21T00:19:00.101Z,1010.94
2017-02-21T00:20:09.580Z,1010.89
2017-02-21T00:21:19.135Z,1010.87
2017-02-21T00:22:28.728Z,1010.85
2017-02-21T00:23:37.420Z,1010.84
2017-02-21T00:24:46.896Z,1010.84
2017-02-21T00:25:56.013Z,1010.83
2017-02-21T00:27:04.743Z,1010.86
2017-02-21T00:28:13.822Z,1010.82
2017-02-21T00:29:22.902Z,1010.81
2017-02-21T00:30:31.652Z,1010.78
2017-02-21T00:31:41.106Z,1010.8
2017-02-21T00:32:50.691Z,1010.79
2017-02-21T00:34:00.520Z,1010.78
2017-02-21T00:35:10.002Z,1010.72
2017-02-21T00:36:19.853Z,1010.66
2017-02-21T00:37:28.942Z,1010.6
2017-02-21T00:38:38.411Z,1010.6
2017-02-21T00:39:48.746Z,1010.54
2017-02-21T00:40:57.900Z,1010.53
2017-02-21T00:42:07.730Z,1010.44
2017-02-21T00:43:16.801Z,1010.45
2017-02-21T00:44:25.877Z,1010.43
2017-02-21T00:45:35.334Z,1010.39
2017-02-21T00:46:45.654Z,1010.42
2017-02-21T00:47:55.889Z,1010.41
2017-02-21T00:49:05.353Z,1010.44
2017-02-21T00:50:14.849Z,1010.31
2017-02-21T00:51:24.413Z,1010.33
2017-02-21T00:52:34.266Z,1010.32
2017-02-21T00:53:44.564Z,1010.24
2017-02-21T00:54:53.653Z,1010.26
2017-02-21T00:56:02.722Z,1010.11
2017-02-21T00:57:11.415Z,1010.14
2017-02-21T00:58:21.261Z,1010.15
2017-02-21T00:59:30.364Z,1010.13
2017-02-21T01:00:39.818Z,1010.15
2017-02-21T01:01:50.155Z,1010.15
2017-02-21T01:02:58.914Z,1010.12
2017-02-21T01:04:08.450Z,1010.04
2017-02-21T01:05:17.915Z,1009.98
2017-02-21T01:06:27.357Z,1010.01
2017-02-21T01:07:36.545Z,1009.93
2017-02-21T01:08:46.009Z,1009.96
2017-02-21T01:09:54.728Z,1009.98
2017-02-21T01:11:04.193Z,1009.98
2017-02-21T01:12:14.024Z,1010.03
2017-02-21T01:13:23.477Z,1010.03
2017-02-21T01:14:32.940Z,1010.06
2017-02-21T01:15:43.372Z,1010
2017-02-21T01:16:52.819Z,1009.96
2017-02-21T01:18:03.071Z,1009.95
2017-02-21T01:19:11.850Z,1009.9
2017-02-21T01:20:21.402Z,1009.91
2017-02-21T01:21:30.852Z,1009.91
2017-02-21T01:22:39.544Z,1009.91
2017-02-21T01:23:49.392Z,1009.85
2017-02-21T01:24:58.462Z,1009.79
2017-02-21T01:26:08.467Z,1009.83
2017-02-21T01:27:17.554Z,1009.81
2017-02-21T01:28:27.397Z,1009.77
2017-02-21T01:29:36.855Z,1009.71
2017-02-21T01:30:46.683Z,1009.72
2017-02-21T01:31:55.383Z,1009.63
2017-02-21T01:33:04.842Z,1009.68
2017-02-21T01:34:14.290Z,1009.68
2017-02-21T01:35:23.364Z,1009.75
2017-02-21T01:36:32.437Z,1009.69
2017-02-21T01:37:41.906Z,1009.65
2017-02-21T01:38:51.735Z,1009.63
2017-02-21T01:40:00.820Z,1009.59
2017-02-21T01:41:09.521Z,1009.55
2017-02-21T01:42:18.615Z,1009.63
2017-02-21T01:43:27.680Z,1009.58
2017-02-21T01:44:37.905Z,1009.58
2017-02-21T01:45:46.991Z,1009.53
2017-02-21T01:46:56.445Z,1009.53
2017-02-21T01:48:05.535Z,1009.55
2017-02-21T01:49:14.252Z,1010.97
2017-02-21T01:50:22.948Z,1010.87
2017-02-21T01:51:32.790Z,1010.85
2017-02-21T01:52:42.248Z,1010.77
2017-02-21T01:53:51.736Z,1010.81
2017-02-21T01:55:01.568Z,1010.78
2017-02-21T01:56:10.662Z,1010.73
2017-02-21T01:57:20.115Z,1010.71
2017-02-21T01:58:29.190Z,1010.64
2017-02-21T01:59:39.016Z,1010.68
2017-02-21T02:00:47.709Z,1010.62
2017-02-21T02:01:56.396Z,1010.59
2017-02-21T02:03:05.464Z,1010.62
2017-02-21T02:04:14.524Z,1010.56
2017-02-21T02:05:23.990Z,1010.57
2017-02-21T02:06:33.449Z,1010.54
2017-02-21T02:07:42.510Z,1010.47
2017-02-21T02:08:51.599Z,1010.49
2017-02-21T02:10:00.294Z,1010.47
2017-02-21T02:11:09.365Z,1010.48
2017-02-21T02:12:18.057Z,1010.46
2017-02-21T02:13:26.737Z,1010.42
2017-02-21T02:14:35.808Z,1010.46
2017-02-21T02:15:45.668Z,1010.36
2017-02-21T02:16:54.733Z,1010.29
2017-02-21T02:18:04.245Z,1010.3
2017-02-21T02:19:13.382Z,1010.27
2017-02-21T02:20:22.463Z,1010.24
2017-02-21T02:21:32.319Z,1010.22
2017-02-21T02:22:41.396Z,1010.17
2017-02-21T02:23:50.484Z,1010.23
2017-02-21T02:24:59.560Z,1010.17
2017-02-21T02:26:09.056Z,1010.09
2017-02-21T02:27:18.903Z,1010.07
2017-02-21T02:28:27.589Z,1010.05
2017-02-21T02:29:37.034Z,1010
2017-02-21T02:30:46.496Z,1009.96
2017-02-21T02:31:55.203Z,1009.9
2017-02-21T02:33:04.688Z,1009.92
2017-02-21T02:34:13.755Z,1009.82
2017-02-21T02:35:23.226Z,1009.74
2017-02-21T02:36:32.694Z,1009.78
2017-02-21T02:37:42.137Z,1009.62
2017-02-21T02:38:51.599Z,1009.6
2017-02-21T02:40:00.686Z,1009.53
2017-02-21T02:41:10.554Z,1009.51
2017-02-21T02:42:19.621Z,1010.85
2017-02-21T02:43:28.697Z,1010.78
2017-02-21T02:44:37.381Z,1010.73
2017-02-21T02:45:46.478Z,1010.71
2017-02-21T02:46:55.158Z,1010.7
2017-02-21T02:48:04.618Z,1010.65
2017-02-21T02:49:14.062Z,1010.6
2017-02-21T02:50:23.147Z,1010.47
2017-02-21T02:51:32.975Z,1010.46
2017-02-21T02:52:42.805Z,1010.38
2017-02-21T02:53:52.268Z,1010.28
2017-02-21T02:55:02.103Z,1010.29
2017-02-21T02:56:11.571Z,1010.23
2017-02-21T02:57:20.661Z,1010.25
2017-02-21T02:58:30.117Z,1010.23
2017-02-21T02:59:38.796Z,1010.22
2017-02-21T03:00:48.243Z,1010.26
2017-02-21T03:01:57.332Z,1010.17
2017-02-21T03:03:06.773Z,1010.17
2017-02-21T03:04:15.467Z,1010.2
2017-02-21T03:05:24.538Z,1010.11
2017-02-21T03:06:33.616Z,1009.99
2017-02-21T03:07:43.449Z,1009.84
2017-02-21T03:08:52.509Z,1009.64
2017-02-21T03:10:01.964Z,1009.41
2017-02-21T03:11:11.035Z,1010.74
2017-02-21T03:12:20.491Z,1010.61
2017-02-21T03:13:30.323Z,1010.5
2017-02-21T03:14:40.163Z,1010.4
2017-02-21T03:15:49.229Z,1010.35
2017-02-21T03:16:57.925Z,1010.36
2017-02-21T03:18:07.003Z,1010.48
2017-02-21T03:19:15.690Z,1010.54
2017-02-21T03:20:25.145Z,1010.58
2017-02-21T03:21:35.001Z,1010.65
2017-02-21T03:22:44.057Z,1010.62
2017-02-21T03:23:53.512Z,1010.67
2017-02-21T03:25:02.972Z,1010.79
2017-02-21T03:26:12.032Z,1010.75
2017-02-21T03:27:21.105Z,1010.7
2017-02-21T03:28:30.566Z,1010.65
2017-02-21T03:29:39.259Z,1010.6
2017-02-21T03:30:48.705Z,1010.51
2017-02-21T03:31:57.762Z,1010.44
2017-02-21T03:33:07.592Z,1010.27
2017-02-21T03:34:17.440Z,1010.18
2017-02-21T03:35:26.899Z,1010.11
2017-02-21T03:36:36.752Z,1010.02
2017-02-21T03:37:45.832Z,1009.94
2017-02-21T03:38:54.919Z,1009.88
2017-02-21T03:40:04.405Z,1009.97
2017-02-21T03:41:13.478Z,1009.98
2017-02-21T03:42:22.556Z,1010.03
2017-02-21T03:43:32.023Z,1010.05
2017-02-21T03:44:41.881Z,1010.02
2017-02-21T03:45:51.330Z,1009.89
2017-02-21T03:47:00.774Z,1009.75
2017-02-21T03:48:10.641Z,1011.08
2017-02-21T03:49:20.484Z,1011.17
2017-02-21T03:50:29.591Z,1011.22
2017-02-21T03:51:38.667Z,1011.18
2017-02-21T03:52:47.737Z,1011.24
2017-02-21T03:53:57.585Z,1011.2
2017-02-21T03:55:07.042Z,1011.18
2017-02-21T03:56:15.730Z,1011.21
2017-02-21T03:57:25.179Z,1011.19
2017-02-21T03:58:34.629Z,1011.18
2017-02-21T03:59:44.083Z,1011.16
2017-02-21T04:00:53.156Z,1011.09
2017-02-21T04:02:02.619Z,1011.06
2017-02-21T04:03:12.078Z,1011.07
2017-02-21T04:04:20.775Z,1011.07
2017-02-21T04:05:30.631Z,1011.03
2017-02-21T04:06:39.699Z,1011.08
2017-02-21T04:07:48.775Z,1011.1
2017-02-21T04:08:58.621Z,1011.18
2017-02-21T04:10:08.068Z,1011.18
2017-02-21T04:11:17.529Z,1011.2
2017-02-21T04:12:26.594Z,1011.19
2017-02-21T04:13:35.322Z,1011.15
2017-02-21T04:14:44.762Z,1011.11
2017-02-21T04:15:54.208Z,1011.08
2017-02-21T04:17:04.050Z,1011.08
2017-02-21T04:18:13.881Z,1011.04
2017-02-21T04:19:23.315Z,1010.95
2017-02-21T04:20:32.773Z,1010.95
2017-02-21T04:21:42.240Z,1010.97
2017-02-21T04:22:51.710Z,1010.99
2017-02-21T04:24:01.173Z,1010.95
2017-02-21T04:25:10.624Z,1010.9
2017-02-21T04:26:20.480Z,1010.91
2017-02-21T04:27:29.924Z,1010.94
2017-02-21T04:28:39.001Z,1010.92
2017-02-21T04:29:48.849Z,1010.94
2017-02-21T04:30:57.926Z,1010.91
2017-02-21T04:32:06.614Z,1010.92
2017-02-21T04:33:16.829Z,1010.96
2017-02-21T04:34:26.311Z,1010.96
2017-02-21T04:35:35.773Z,1010.97
2017-02-21T04:36:45.219Z,1011
2017-02-21T04:37:53.952Z,1011.06
2017-02-21T04:39:03.025Z,1011.09
2017-02-21T04:40:12.098Z,1011.11
2017-02-21T04:41:21.160Z,1011.11
2017-02-21T04:42:30.606Z,1011.16
2017-02-21T04:43:39.687Z,1011.14
2017-02-21T04:44:48.780Z,1011.2
2017-02-21T04:45:58.236Z,1011.23
2017-02-21T04:47:07.308Z,1011.26
2017-02-21T04:48:17.139Z,1011.26
2017-02-21T04:49:26.203Z,1011.24
2017-02-21T04:50:35.648Z,1011.3
2017-02-21T04:51:44.731Z,1011.25
2017-02-21T04:52:54.183Z,1011.23
2017-02-21T04:54:03.631Z,1011.27
2017-02-21T04:55:12.315Z,1011.26
2017-02-21T04:56:21.386Z,1011.18
2017-02-21T04:57:30.850Z,1011.19
2017-02-21T04:58:39.925Z,1011.15
2017-02-21T04:59:49.756Z,1011.18
2017-02-21T05:00:58.443Z,1011.15
2017-02-21T05:02:07.921Z,1011.18
2017-02-21T05:03:16.993Z,1011.21
2017-02-21T05:04:26.437Z,1011.24
2017-02-21T05:05:35.899Z,1011.23
2017-02-21T05:06:45.361Z,1011.25
2017-02-21T05:07:54.816Z,1011.24
2017-02-21T05:09:04.295Z,1011.23
2017-02-21T05:10:12.997Z,1011.19
2017-02-21T05:11:22.452Z,1011.21
2017-02-21T05:12:32.680Z,1011.17
2017-02-21T05:13:42.524Z,1011.16
2017-02-21T05:14:51.236Z,1011.23
2017-02-21T05:16:00.700Z,1011.27
2017-02-21T05:17:10.174Z,1011.3
2017-02-21T05:18:19.260Z,1011.34
2017-02-21T05:19:28.324Z,1011.32
2017-02-21T05:20:37.002Z,1011.37
2017-02-21T05:21:46.840Z,1011.33
2017-02-21T05:22:55.934Z,1011.42
2017-02-21T05:24:05.385Z,1011.39
2017-02-21T05:25:14.073Z,1011.43
2017-02-21T05:26:23.907Z,1011.47
2017-02-21T05:27:32.984Z,1011.43
2017-02-21T05:28:42.492Z,1011.38
2017-02-21T05:29:51.174Z,1011.36
2017-02-21T05:30:59.864Z,1011.37
2017-02-21T05:32:08.947Z,1011.35
2017-02-21T05:33:19.149Z,1011.36
2017-02-21T05:34:29.004Z,1011.35
2017-02-21T05:35:38.449Z,1011.29
2017-02-21T05:36:48.293Z,1011.23
2017-02-21T05:37:57.380Z,1011.26
2017-02-21T05:39:06.846Z,1011.23
2017-02-21T05:40:16.683Z,1011.26
2017-02-21T05:41:26.163Z,1011.3
2017-02-21T05:42:35.623Z,1011.34
2017-02-21T05:43:44.685Z,1011.4
2017-02-21T05:44:53.389Z,1011.41
2017-02-21T05:46:03.227Z,1011.46
2017-02-21T05:47:13.059Z,1011.54
2017-02-21T05:48:22.117Z,1011.48
2017-02-21T05:49:30.805Z,1011.46
2017-02-21T05:50:39.493Z,1011.46
2017-02-21T05:51:48.934Z,1011.47
2017-02-21T05:52:57.635Z,1011.49
2017-02-21T05:54:07.068Z,1011.47
2017-02-21T05:55:15.748Z,1011.49
2017-02-21T05:56:25.574Z,1011.55
2017-02-21T05:57:35.017Z,1011.54
2017-02-21T05:58:44.491Z,1011.58
2017-02-21T05:59:53.582Z,1011.54
2017-02-21T06:01:03.409Z,1011.57
2017-02-21T06:02:13.261Z,1011.6
2017-02-21T06:03:21.952Z,1011.53
2017-02-21T06:04:30.647Z,1011.55
2017-02-21T06:05:39.740Z,1011.51
2017-02-21T06:06:49.224Z,1011.52
2017-02-21T06:07:58.293Z,1011.57
2017-02-21T06:09:06.984Z,1011.56
2017-02-21T06:10:16.481Z,1011.5
2017-02-21T06:11:25.193Z,1011.47
2017-02-21T06:12:34.637Z,1011.49
2017-02-21T06:13:44.486Z,1011.54
2017-02-21T06:14:53.938Z,1011.55
2017-02-21T06:16:03.000Z,1011.58
2017-02-21T06:17:12.451Z,1011.53
2017-02-21T06:18:21.913Z,1011.59
2017-02-21T06:19:31.396Z,1011.64
2017-02-21T06:20:41.229Z,1011.67
2017-02-21T06:21:50.300Z,1011.62
2017-02-21T06:22:58.994Z,1011.66
2017-02-21T06:24:07.698Z,1011.68
2017-02-21T06:25:17.923Z,1011.7
2017-02-21T06:26:27.366Z,1011.77
2017-02-21T06:27:36.807Z,1011.79
2017-02-21T06:28:47.019Z,1011.8
2017-02-21T06:29:56.861Z,1011.79
2017-02-21T06:31:06.695Z,1011.87
2017-02-21T06:32:16.144Z,1011.84
2017-02-21T06:33:25.596Z,1011.88
2017-02-21T06:34:34.681Z,1011.92
2017-02-21T06:35:43.753Z,1011.92
2017-02-21T06:36:52.827Z,1011.85
2017-02-21T06:38:01.543Z,1011.89
2017-02-21T06:39:10.629Z,1011.91
2017-02-21T06:40:19.699Z,1011.91
2017-02-21T06:41:28.794Z,1011.91
2017-02-21T06:42:38.239Z,1011.99
2017-02-21T06:43:46.945Z,1011.96
2017-02-21T06:44:56.036Z,1012.04
2017-02-21T06:46:05.113Z,1012.02
2017-02-21T06:47:13.803Z,1012.05
2017-02-21T06:48:23.270Z,1012.04
2017-02-21T06:49:32.716Z,1012.09
2017-02-21T06:50:42.161Z,1012.05
2017-02-21T06:51:51.252Z,1012.02
2017-02-21T06:53:00.713Z,1011.97
2017-02-21T06:54:10.164Z,1011.98
2017-02-21T06:55:18.856Z,1011.98
2017-02-21T06:56:27.937Z,1011.98
2017-02-21T06:57:37.014Z,1011.96
2017-02-21T06:58:46.072Z,1012
2017-02-21T06:59:55.551Z,1012
2017-02-21T07:01:05.011Z,1011.99
2017-02-21T07:02:14.073Z,1012.03
2017-02-21T07:03:23.932Z,1012.04
2017-02-21T07:04:33.759Z,1012.03
2017-02-21T07:05:42.824Z,1012.04
2017-02-21T07:06:51.521Z,1012.1
2017-02-21T07:08:00.224Z,1012.13
2017-02-21T07:09:09.683Z,1012.2
2017-02-21T07:10:18.755Z,1012.17
2017-02-21T07:11:28.608Z,1012.19
2017-02-21T07:12:38.073Z,1012.15
2017-02-21T07:13:47.906Z,1012.2
2017-02-21T07:14:56.606Z,1012.18
2017-02-21T07:16:05.710Z,1012.18
2017-02-21T07:17:15.179Z,1012.2
2017-02-21T07:18:24.656Z,1012.23
2017-02-21T07:19:34.482Z,1012.19
2017-02-21T07:20:43.976Z,1012.21
2017-02-21T07:21:53.038Z,1012.19
2017-02-21T07:23:02.499Z,1012.17
2017-02-21T07:24:11.561Z,1012.17
2017-02-21T07:25:21.012Z,1012.17
2017-02-21T07:26:30.478Z,1012.2
2017-02-21T07:27:39.173Z,1012.23
2017-02-21T07:28:48.238Z,1012.3
2017-02-21T07:29:57.689Z,1012.29
2017-02-21T07:31:07.145Z,1012.31
2017-02-21T07:32:16.222Z,1012.28
2017-02-21T07:33:25.285Z,1012.28
2017-02-21T07:34:34.355Z,1012.26
2017-02-21T07:35:43.045Z,1012.24
2017-02-21T07:36:52.117Z,1012.26
2017-02-21T07:38:01.185Z,1012.26
2017-02-21T07:39:09.877Z,1012.3
2017-02-21T07:40:19.329Z,1012.34
2017-02-21T07:41:29.562Z,1012.38
2017-02-21T07:42:38.641Z,1012.38
2017-02-21T07:43:48.103Z,1012.39
2017-02-21T07:44:57.182Z,1012.41
2017-02-21T07:46:06.637Z,1012.45
2017-02-21T07:47:16.495Z,1012.44
2017-02-21T07:48:25.972Z,1012.45
2017-02-21T07:49:35.806Z,1012.52
2017-02-21T07:50:46.028Z,1012.48
2017-02-21T07:51:55.484Z,1012.46
2017-02-21T07:53:04.934Z,1012.49
2017-02-21T07:54:14.016Z,1012.47
2017-02-21T07:55:23.465Z,1012.44
2017-02-21T07:56:32.932Z,1012.47
2017-02-21T07:57:42.767Z,1012.43
2017-02-21T07:58:52.239Z,1012.45
2017-02-21T08:00:02.458Z,1012.52
2017-02-21T08:01:11.554Z,1012.53
2017-02-21T08:02:21.406Z,1012.54
2017-02-21T08:03:31.677Z,1012.54
2017-02-21T08:04:40.750Z,1012.6
2017-02-21T08:05:50.582Z,1012.61
2017-02-21T08:07:00.435Z,1012.62
2017-02-21T08:08:09.900Z,1012.61
2017-02-21T08:09:18.592Z,1012.58
2017-02-21T08:10:27.275Z,1012.6
2017-02-21T08:11:36.725Z,1012.66
2017-02-21T08:12:45.445Z,1012.65
2017-02-21T08:13:54.517Z,1012.64
2017-02-21T08:15:03.981Z,1012.64
2017-02-21T08:16:12.663Z,1012.62
2017-02-21T08:17:22.115Z,1012.61
2017-02-21T08:18:31.211Z,1012.62
2017-02-21T08:19:39.889Z,1012.61
2017-02-21T08:20:49.330Z,1012.61
2017-02-21T08:21:58.392Z,1012.56
2017-02-21T08:23:07.466Z,1012.66
2017-02-21T08:24:16.920Z,1012.66
2017-02-21T08:25:26.789Z,1012.67
2017-02-21T08:26:36.641Z,1012.64
2017-02-21T08:27:45.728Z,1012.7
2017-02-21T08:28:55.186Z,1012.67
2017-02-21T08:30:04.640Z,1012.73
2017-02-21T08:31:13.720Z,1012.7
2017-02-21T08:32:22.802Z,1012.72
2017-02-21T08:33:32.657Z,1012.71
2017-02-21T08:34:41.741Z,1012.72
2017-02-21T08:35:50.436Z,1012.66
2017-02-21T08:37:00.693Z,1012.67
2017-02-21T08:38:09.767Z,1012.65
2017-02-21T08:39:18.458Z,1012.73
2017-02-21T08:40:27.155Z,1012.71
2017-02-21T08:41:35.847Z,1012.71
2017-02-21T08:42:45.307Z,1012.7
2017-02-21T08:43:55.140Z,1012.68
2017-02-21T08:45:03.859Z,1012.73
2017-02-21T08:46:12.568Z,1012.8
2017-02-21T08:47:22.402Z,1012.84
2017-02-21T08:48:31.475Z,1012.72
2017-02-21T08:49:40.545Z,1012.73
2017-02-21T08:50:50.398Z,1012.74
2017-02-21T08:51:59.846Z,1012.74
2017-02-21T08:53:08.926Z,1012.79
2017-02-21T08:54:18.001Z,1012.81
2017-02-21T08:55:27.831Z,1012.86
2017-02-21T08:56:37.673Z,1012.91
2017-02-21T08:57:46.757Z,1013.02
2017-02-21T08:58:56.226Z,1012.95
2017-02-21T09:00:05.675Z,1012.9
2017-02-21T09:01:15.135Z,1012.99
2017-02-21T09:02:24.586Z,1012.94
2017-02-21T09:03:34.028Z,1012.94
2017-02-21T09:04:43.486Z,1012.88
2017-02-21T09:05:52.588Z,1012.91
2017-02-21T09:07:01.684Z,1012.97
2017-02-21T09:08:10.780Z,1012.95
2017-02-21T09:09:19.846Z,1012.95
2017-02-21T09:10:28.915Z,1013
2017-02-21T09:11:37.982Z,1013.04
2017-02-21T09:12:47.848Z,1013.02
2017-02-21T09:13:57.300Z,1012.98
2017-02-21T09:15:06.376Z,1012.95
2017-02-21T09:16:15.824Z,1013.02
2017-02-21T09:17:25.603Z,1013.06
2017-02-21T09:18:34.324Z,1013.09
2017-02-21T09:19:43.775Z,1013.07
2017-02-21T09:20:53.259Z,1013.2
2017-02-21T09:22:02.348Z,1013.12
2017-02-21T09:23:11.034Z,1013.17
2017-02-21T09:24:19.740Z,1013.19
2017-02-21T09:25:28.428Z,1013.24
2017-02-21T09:26:37.183Z,1013.14
2017-02-21T09:27:46.280Z,1013.08
2017-02-21T09:28:54.971Z,1013.13
2017-02-21T09:30:04.421Z,1013.13
2017-02-21T09:31:13.521Z,1013.1
2017-02-21T09:32:22.247Z,1013.06
2017-02-21T09:33:30.947Z,1013.01
2017-02-21T09:34:40.398Z,1012.91
2017-02-21T09:35:50.278Z,1012.96
2017-02-21T09:36:59.343Z,1012.98
2017-02-21T09:38:08.821Z,1013.06
2017-02-21T09:39:17.906Z,1013.01
2017-02-21T09:40:27.391Z,1013.04
2017-02-21T09:41:36.934Z,1012.96
2017-02-21T09:42:46.040Z,1012.97
2017-02-21T09:43:54.734Z,1013.06
2017-02-21T09:45:03.805Z,1012.98
2017-02-21T09:46:13.677Z,1013.14
2017-02-21T09:47:22.400Z,1013.14
2017-02-21T09:48:31.481Z,1013.19
2017-02-21T09:49:40.562Z,1013.21
2017-02-21T09:50:50.014Z,1013.14
2017-02-21T09:51:59.843Z,1013.21
2017-02-21T09:53:08.918Z,1013.19
2017-02-21T09:54:17.992Z,1013.25
2017-02-21T09:55:28.210Z,1013.27
2017-02-21T09:56:37.201Z,1013.24
2017-02-21T09:57:46.698Z,1013.24
2017-02-21T09:58:56.200Z,1013.07
2017-02-21T10:00:06.041Z,1013.19
2017-02-21T10:01:15.492Z,1013.17
2017-02-21T10:02:24.562Z,1013.37
2017-02-21T10:03:34.016Z,1013.5
2017-02-21T10:04:43.860Z,1013.53
2017-02-21T10:05:52.565Z,1013.29
2017-02-21T10:07:02.028Z,1013.57
2017-02-21T10:08:11.476Z,1013.51
2017-02-21T10:09:20.558Z,1013.33
2017-02-21T10:10:29.647Z,1013.28
2017-02-21T10:11:39.095Z,1013.29
2017-02-21T10:12:48.570Z,1013.4
2017-02-21T10:13:57.651Z,1013.39
2017-02-21T10:15:07.512Z,1013.36
2017-02-21T10:16:16.206Z,1013.39
2017-02-21T10:17:26.048Z,1013.22
2017-02-21T10:18:35.144Z,1013.6
2017-02-21T10:19:44.976Z,1013.3
2017-02-21T10:20:54.427Z,1013.46
2017-02-21T10:22:04.668Z,1013.11
2017-02-21T10:23:14.508Z,1013.21
2017-02-21T10:24:24.357Z,1013.51
2017-02-21T10:25:33.811Z,1013.27
2017-02-21T10:26:43.664Z,1013.55
2017-02-21T10:27:53.513Z,1013.26
2017-02-21T10:29:02.614Z,1013.33
2017-02-21T10:30:11.700Z,1013.49
2017-02-21T10:31:21.186Z,1013.46
2017-02-21T10:32:30.644Z,1013.49
2017-02-21T10:33:40.495Z,1013.45
2017-02-21T10:34:49.960Z,1013.5
2017-02-21T10:35:59.799Z,1013.46
2017-02-21T10:37:08.889Z,1013.5
2017-02-21T10:38:17.970Z,1013.55
2017-02-21T10:39:27.062Z,1013.41
2017-02-21T10:40:36.147Z,1013.54
2017-02-21T10:41:45.240Z,1013.58
2017-02-21T10:42:54.307Z,1013.35
2017-02-21T10:44:03.788Z,1013.52
2017-02-21T10:45:13.618Z,1013.52
2017-02-21T10:46:22.717Z,1013.55
2017-02-21T10:47:31.804Z,1013.54
2017-02-21T10:48:42.033Z,1013.64
2017-02-21T10:49:50.720Z,1013.64
2017-02-21T10:50:59.828Z,1013.54
2017-02-21T10:52:09.661Z,1013.36
2017-02-21T10:53:19.139Z,1013.56
2017-02-21T10:54:28.199Z,1013.58
2017-02-21T10:55:37.290Z,1013.46
2017-02-21T10:56:47.133Z,1013.46
2017-02-21T10:57:56.224Z,1013.48
2017-02-21T10:59:05.673Z,1013.51
2017-02-21T11:00:15.137Z,1013.41
2017-02-21T11:01:24.203Z,1013.41
2017-02-21T11:02:33.664Z,1013.23
2017-02-21T11:03:43.145Z,1013.23
2017-02-21T11:04:52.231Z,1013.45
2017-02-21T11:06:01.698Z,1013.46
2017-02-21T11:07:10.776Z,1013.35
2017-02-21T11:08:20.250Z,1013.29
2017-02-21T11:09:29.730Z,1013.36
2017-02-21T11:10:38.431Z,1013.31
2017-02-21T11:11:47.117Z,1013.28
2017-02-21T11:12:56.587Z,1013.25
2017-02-21T11:14:06.422Z,1013.15
2017-02-21T11:15:15.872Z,1013.16
2017-02-21T11:16:24.581Z,1013.16
2017-02-21T11:17:33.272Z,1013.18
2017-02-21T11:18:42.370Z,1013.29
2017-02-21T11:19:51.844Z,1013.27
2017-02-21T11:21:01.720Z,1013.34
2017-02-21T11:22:11.564Z,1013.3
2017-02-21T11:23:21.024Z,1013.32
2017-02-21T11:24:30.862Z,1013.31
2017-02-21T11:25:40.314Z,1013.36
2017-02-21T11:26:49.396Z,1013.47
2017-02-21T11:27:58.854Z,1013.39
2017-02-21T11:29:08.314Z,1013.42
2017-02-21T11:30:17.791Z,1013.51
2017-02-21T11:31:26.876Z,1013.43
2017-02-21T11:32:35.558Z,1013.48
2017-02-21T11:33:45.394Z,1013.46
2017-02-21T11:34:54.853Z,1013.49
2017-02-21T11:36:04.706Z,1013.71
2017-02-21T11:37:13.831Z,1013.51
2017-02-21T11:38:23.293Z,1013.46
2017-02-21T11:39:32.743Z,1013.42
2017-02-21T11:40:42.205Z,1013.44
2017-02-21T11:41:51.283Z,1013.43
2017-02-21T11:43:01.121Z,1013.47
2017-02-21T11:44:09.823Z,1013.52
2017-02-21T11:45:19.292Z,1013.56
2017-02-21T11:46:28.745Z,1013.55
2017-02-21T11:47:37.819Z,1013.46
2017-02-21T11:48:47.295Z,1013.5
2017-02-21T11:49:56.757Z,1013.47
2017-02-21T11:51:06.240Z,1013.5
2017-02-21T11:52:14.950Z,1013.49
2017-02-21T11:53:24.789Z,1013.51
2017-02-21T11:54:33.882Z,1013.54
2017-02-21T11:55:42.966Z,1013.45
2017-02-21T11:56:52.040Z,1013.43
2017-02-21T11:58:01.492Z,1013.45
2017-02-21T11:59:10.188Z,1013.4
2017-02-21T12:00:19.656Z,1013.45
2017-02-21T12:01:29.514Z,1013.33
2017-02-21T12:02:38.982Z,1013.33
2017-02-21T12:03:48.443Z,1013.35
2017-02-21T12:04:57.534Z,1013.36
2017-02-21T12:06:07.370Z,1013.27
2017-02-21T12:07:16.447Z,1013.2
2017-02-21T12:08:25.904Z,1013.18
2017-02-21T12:09:34.639Z,1013.15
2017-02-21T12:10:43.358Z,1013.26
2017-02-21T12:11:52.825Z,1013.25
2017-02-21T12:13:01.895Z,1013.22
2017-02-21T12:14:10.960Z,1013.18
2017-02-21T12:15:20.790Z,1013.23
2017-02-21T12:16:29.530Z,1013.16
2017-02-21T12:17:39.853Z,1013.27
2017-02-21T12:18:48.615Z,1013.21
2017-02-21T12:19:58.097Z,1013.28
2017-02-21T12:21:07.557Z,1013.35
2017-02-21T12:22:16.238Z,1013.34
2017-02-21T12:23:25.312Z,1013.25
2017-02-21T12:24:34.397Z,1013.27
2017-02-21T12:25:43.878Z,1013.33
2017-02-21T12:26:53.349Z,1013.34
2017-02-21T12:28:02.806Z,1013.31
2017-02-21T12:29:12.641Z,1013.21
2017-02-21T12:30:21.710Z,1013.25
2017-02-21T12:31:31.939Z,1013.26
2017-02-21T12:32:41.420Z,1013.26
2017-02-21T12:33:51.297Z,1013.2
2017-02-21T12:35:00.363Z,1013.14
2017-02-21T12:36:09.824Z,1013.17
2017-02-21T12:37:18.929Z,1013.23
2017-02-21T12:38:28.404Z,1013.25
2017-02-21T12:39:37.846Z,1013.28
2017-02-21T12:40:46.535Z,1013.32
2017-02-21T12:41:55.997Z,1013.19
2017-02-21T12:43:05.855Z,1013.26
2017-02-21T12:44:14.924Z,1013.18
2017-02-21T12:45:24.381Z,1013.21
2017-02-21T12:46:34.239Z,1013.14
2017-02-21T12:47:43.684Z,1013.14
2017-02-21T12:48:52.758Z,1013.15
2017-02-21T12:50:01.466Z,1013.15
2017-02-21T12:51:11.685Z,1013.18
2017-02-21T12:52:21.150Z,1013.19
2017-02-21T12:53:30.246Z,1013.1
2017-02-21T12:54:39.322Z,1013.17
2017-02-21T12:55:48.795Z,1013.21
2017-02-21T12:56:58.640Z,1013.13
2017-02-21T12:58:08.108Z,1013.12
2017-02-21T12:59:17.222Z,1013.16
2017-02-21T13:00:26.691Z,1013.13
2017-02-21T13:01:36.525Z,1013.03
2017-02-21T13:02:46.400Z,1013.03
2017-02-21T13:03:55.858Z,1013.06
2017-02-21T13:05:05.315Z,1013
2017-02-21T13:06:14.014Z,1013.03
2017-02-21T13:07:23.479Z,1012.99
2017-02-21T13:08:33.350Z,1013.02
2017-02-21T13:09:42.451Z,1012.99
2017-02-21T13:10:51.901Z,1013.07
2017-02-21T13:12:01.771Z,1013.16
2017-02-21T13:13:12.006Z,1013.02
2017-02-21T13:14:20.735Z,1012.98
2017-02-21T13:15:30.191Z,1013.02
2017-02-21T13:16:38.890Z,1013
2017-02-21T13:17:48.370Z,1013.04
2017-02-21T13:18:57.823Z,1013.05
2017-02-21T13:20:06.908Z,1013.03
2017-02-21T13:21:15.602Z,1012.99
2017-02-21T13:22:25.058Z,1012.99
2017-02-21T13:23:33.743Z,1013.04
2017-02-21T13:24:43.186Z,1013.09
2017-02-21T13:25:53.024Z,1013.06
2017-02-21T13:27:02.120Z,1013.05
2017-02-21T13:28:11.571Z,1013.05
2017-02-21T13:29:20.649Z,1013.1
2017-02-21T13:30:29.341Z,1013.04
2017-02-21T13:31:38.458Z,1013.11
2017-02-21T13:32:48.313Z,1013.06
2017-02-21T13:33:57.799Z,1013.05
2017-02-21T13:35:07.260Z,1013.02
2017-02-21T13:36:16.326Z,1013.03
2017-02-21T13:37:25.408Z,1013
2017-02-21T13:38:34.859Z,1013
2017-02-21T13:39:44.341Z,1013
2017-02-21T13:40:54.166Z,1012.93
2017-02-21T13:42:04.005Z,1013.04
2017-02-21T13:43:13.455Z,1013.05
2017-02-21T13:44:22.523Z,1012.99
2017-02-21T13:45:31.608Z,1013.05
2017-02-21T13:46:40.301Z,1013.01
2017-02-21T13:47:49.380Z,1012.99
2017-02-21T13:48:58.465Z,1013.02
2017-02-21T13:50:07.546Z,1013.01
2017-02-21T13:51:16.246Z,1012.99
2017-02-21T13:52:25.330Z,1013.02
2017-02-21T13:53:34.027Z,1012.95
2017-02-21T13:54:43.484Z,1012.93
2017-02-21T13:55:52.958Z,1012.87
2017-02-21T13:57:02.418Z,1012.85
2017-02-21T13:58:12.247Z,1012.9
2017-02-21T13:59:21.324Z,1012.84
2017-02-21T14:00:30.018Z,1012.82
2017-02-21T14:01:39.847Z,1012.82